createdAt,value
2022-11-19T00:01:24.646Z,100037.34
2022-11-19T00:03:52.999Z,100031.09
2022-11-19T00:06:28.714Z,100039.00
2022-11-19T00:08:55.118Z,100037.72
2022-11-19T00:11:41.395Z,100042.75
2022-11-19T00:14:08.469Z,100028.59
2022-11-19T00:16:34.763Z,100037.34
2022-11-19T00:19:01.156Z,100022.78
2022-11-19T00:21:27.541Z,100022.41
2022-11-19T00:23:54.671Z,100031.53
2022-11-19T00:26:21.582Z,100019.69
2022-11-19T00:28:47.991Z,100026.13
2022-11-19T00:31:15.206Z,100020.50
2022-11-19T00:33:42.355Z,100020.69
2022-11-19T00:36:09.939Z,100028.38
2022-11-19T00:38:36.486Z,100024.38
2022-11-19T00:41:03.143Z,100021.88
2022-11-19T00:43:48.270Z,100021.06
2022-11-19T00:46:14.958Z,100018.56
2022-11-19T00:48:41.798Z,100024.63
2022-11-19T00:51:08.535Z,100027.34
2022-11-19T00:53:35.236Z,100023.38
2022-11-19T00:56:02.007Z,100029.63
2022-11-19T00:58:28.405Z,100022.53
2022-11-19T01:00:54.700Z,100028.13
2022-11-19T01:03:21.521Z,100026.47
2022-11-19T01:05:47.899Z,100028.56
2022-11-19T01:08:14.172Z,100031.06
2022-11-19T01:10:40.549Z,100024.81
2022-11-19T01:13:25.714Z,100028.38
2022-11-19T01:15:52.099Z,100034.56
2022-11-19T01:18:18.419Z,100042.00
2022-11-19T01:20:45.175Z,100027.06
2022-11-19T01:23:12.016Z,100036.22
2022-11-19T01:25:38.667Z,100036.88
2022-11-19T01:28:05.259Z,100032.09
2022-11-19T01:30:31.844Z,100032.09
2022-11-19T01:32:58.405Z,100042.69
2022-11-19T01:35:24.781Z,99983.50
2022-11-19T01:37:51.535Z,100036.25
2022-11-19T01:40:17.822Z,100032.72
2022-11-19T01:42:50.278Z,100038.91
2022-11-19T01:45:19.559Z,100048.88
2022-11-19T01:47:45.995Z,100042.66
2022-11-19T01:50:12.466Z,100043.94
2022-11-19T01:52:39.857Z,100043.94
2022-11-19T01:55:07.385Z,100043.94
2022-11-19T01:57:33.939Z,100043.09
2022-11-19T02:00:00.236Z,100052.88
2022-11-19T02:02:26.574Z,100051.00
2022-11-19T02:04:53.838Z,100048.69
2022-11-19T02:07:24.497Z,100046.63
2022-11-19T02:09:50.993Z,100055.13
2022-11-19T02:12:40.542Z,100058.03
2022-11-19T02:15:06.831Z,100059.25
2022-11-19T02:17:45.713Z,100055.31
2022-11-19T02:20:24.436Z,100067.16
2022-11-19T02:23:02.955Z,100059.69
2022-11-19T02:25:38.603Z,100057.19
2022-11-19T02:28:14.082Z,100055.78
2022-11-19T02:30:49.679Z,100059.47
2022-11-19T02:33:24.230Z,100040.31
2022-11-19T02:36:12.101Z,100058.03
2022-11-19T02:38:44.947Z,100056.16
2022-11-19T02:41:35.482Z,100056.97
2022-11-19T02:44:37.772Z,100056.94
2022-11-19T02:47:06.546Z,100058.00
2022-11-19T02:49:35.774Z,100056.56
2022-11-19T02:52:03.236Z,100059.25
2022-11-19T02:54:29.531Z,100057.19
2022-11-19T02:56:58.804Z,100063.22
2022-11-19T03:00:01.597Z,100057.63
2022-11-19T03:02:51.715Z,100056.78
2022-11-19T03:05:20.563Z,100062.19
2022-11-19T03:07:47.245Z,100061.56
2022-11-19T03:10:15.053Z,100057.59
2022-11-19T03:12:58.691Z,100057.16
2022-11-19T03:16:02.233Z,100064.00
2022-11-19T03:18:33.058Z,100053.47
2022-11-19T03:21:04.221Z,100065.28
2022-11-19T03:23:36.761Z,100059.25
2022-11-19T03:26:12.864Z,100062.59
2022-11-19T03:28:39.492Z,100067.09
2022-11-19T03:31:06.646Z,100067.09
2022-11-19T03:33:39.811Z,100062.75
2022-11-19T03:36:09.423Z,100059.94
2022-11-19T03:38:38.690Z,100067.13
2022-11-19T03:41:06.152Z,100070.44
2022-11-19T03:43:35.273Z,100075.34
2022-11-19T03:46:02.565Z,100083.38
2022-11-19T03:48:30.854Z,100076.31
2022-11-19T03:51:15.170Z,100098.00
2022-11-19T03:53:41.913Z,100109.16
2022-11-19T03:56:10.226Z,100114.44
2022-11-19T03:58:41.433Z,100117.50
2022-11-19T04:01:08.459Z,100111.22
2022-11-19T04:03:34.789Z,100114.84
2022-11-19T04:06:03.415Z,100121.72
2022-11-19T04:08:29.835Z,100121.09
2022-11-19T04:10:56.766Z,100137.50
2022-11-19T04:13:23.055Z,100141.59
2022-11-19T04:15:49.418Z,100138.63
2022-11-19T04:18:15.754Z,100137.50
2022-11-19T04:20:45.610Z,100145.91
2022-11-19T04:23:12.007Z,100144.25
2022-11-19T04:25:40.228Z,100142.19
2022-11-19T04:28:06.542Z,100139.84
2022-11-19T04:30:32.932Z,100139.59
2022-11-19T04:32:59.207Z,100144.38
2022-11-19T04:35:25.529Z,100138.75
2022-11-19T04:37:51.818Z,100141.28
2022-11-19T04:40:18.214Z,100140.47
2022-11-19T04:42:44.557Z,100149.97
2022-11-19T04:45:11.501Z,100145.97
2022-11-19T04:47:37.821Z,100148.34
2022-11-19T04:50:04.263Z,100149.97
2022-11-19T04:52:34.161Z,100152.94
2022-11-19T04:55:04.258Z,100161.34
2022-11-19T04:57:30.578Z,100161.34
2022-11-19T04:59:56.907Z,100156.13
2022-11-19T05:02:23.206Z,100160.69
2022-11-19T05:04:49.560Z,100159.78
2022-11-19T05:07:15.890Z,100163.00
2022-11-19T05:09:42.342Z,100159.22
2022-11-19T05:12:08.675Z,100165.78
2022-11-19T05:14:38.231Z,100174.56
2022-11-19T05:17:04.837Z,100178.41
2022-11-19T05:19:31.177Z,100190.66
2022-11-19T05:21:57.530Z,100183.16
2022-11-19T05:24:23.882Z,100188.34
2022-11-19T05:26:50.217Z,100194.72
2022-11-19T05:29:16.599Z,100199.28
2022-11-19T05:31:43.175Z,100206.34
2022-11-19T05:34:09.551Z,100213.22
2022-11-19T05:36:35.814Z,100215.06
2022-11-19T05:39:02.107Z,100225.28
2022-11-19T05:41:28.368Z,100223.75
2022-11-19T05:43:55.596Z,100222.31
2022-11-19T05:46:21.918Z,100224.31
2022-11-19T05:48:48.199Z,100224.97
2022-11-19T05:51:15.307Z,100228.69
2022-11-19T05:53:42.239Z,100233.75
2022-11-19T05:56:08.611Z,100230.19
2022-11-19T05:58:35.041Z,100241.75
2022-11-19T06:01:01.340Z,100247.47
2022-11-19T06:03:27.705Z,100246.47
2022-11-19T06:05:54.118Z,100254.88
2022-11-19T06:08:20.510Z,100262.94
2022-11-19T06:10:46.857Z,100251.03
2022-11-19T06:13:13.164Z,100256.88
2022-11-19T06:15:39.614Z,100251.53
2022-11-19T06:18:05.905Z,100258.03
2022-11-19T06:20:32.207Z,100256.91
2022-11-19T06:22:58.467Z,100259.94
2022-11-19T06:25:24.876Z,100266.31
2022-11-19T06:27:51.296Z,100269.31
2022-11-19T06:30:17.611Z,100265.78
2022-11-19T06:32:44.190Z,100268.31
2022-11-19T06:35:10.604Z,100282.56
2022-11-19T06:37:37.047Z,100282.25
2022-11-19T06:40:03.631Z,100297.81
2022-11-19T06:42:36.049Z,100290.09
2022-11-19T06:45:13.097Z,100299.81
2022-11-19T06:47:40.227Z,100304.00
2022-11-19T06:50:07.779Z,100308.50
2022-11-19T06:52:34.166Z,100314.91
2022-11-19T06:55:00.525Z,100315.94
2022-11-19T06:57:26.827Z,100316.25
2022-11-19T06:59:53.192Z,100320.28
2022-11-19T07:02:21.594Z,100322.59
2022-11-19T07:04:48.203Z,100318.09
2022-11-19T07:07:14.707Z,100327.59
2022-11-19T07:09:41.032Z,100331.94
2022-11-19T07:12:07.622Z,100338.00
2022-11-19T07:14:34.001Z,100343.34
2022-11-19T07:17:00.973Z,100339.97
2022-11-19T07:19:27.941Z,100341.31
2022-11-19T07:21:54.270Z,100348.34
2022-11-19T07:24:20.704Z,100360.13
2022-11-19T07:26:46.986Z,100346.28
2022-11-19T07:29:14.025Z,100357.72
2022-11-19T07:31:40.575Z,100366.63
2022-11-19T07:34:07.793Z,100363.47
2022-11-19T07:36:34.402Z,100361.91
2022-11-19T07:39:00.823Z,100367.16
2022-11-19T07:41:45.969Z,100374.69
2022-11-19T07:44:12.330Z,100371.13
2022-11-19T07:46:39.794Z,100372.63
2022-11-19T07:49:06.114Z,100381.00
2022-11-19T07:51:32.491Z,100392.28
2022-11-19T07:53:58.816Z,100393.97
2022-11-19T07:56:25.213Z,100390.13
2022-11-19T07:58:51.681Z,100396.50
2022-11-19T08:01:19.786Z,100392.31
2022-11-19T08:03:50.597Z,100389.28
2022-11-19T08:06:20.578Z,100390.34
2022-11-19T08:08:47.031Z,100396.03
2022-11-19T08:11:14.109Z,100392.53
2022-11-19T08:13:40.474Z,100395.38
2022-11-19T08:16:08.866Z,100400.38
2022-11-19T08:18:35.518Z,100410.38
2022-11-19T08:21:09.041Z,100410.88
2022-11-19T08:23:36.186Z,100413.72
2022-11-19T08:26:03.151Z,100418.66
2022-11-19T08:28:29.604Z,100421.69
2022-11-19T08:30:56.435Z,100422.47
2022-11-19T08:33:22.917Z,100427.50
2022-11-19T08:35:53.699Z,100421.94
2022-11-19T08:38:19.987Z,100423.84
2022-11-19T08:40:50.901Z,100422.84
2022-11-19T08:43:17.259Z,100411.81
2022-11-19T08:45:49.243Z,100422.38
2022-11-19T08:48:15.577Z,100422.22
2022-11-19T08:50:42.160Z,100428.06
2022-11-19T08:53:10.232Z,100426.72
2022-11-19T08:55:36.593Z,100428.63
2022-11-19T08:58:04.493Z,100432.31
2022-11-19T09:00:31.603Z,100426.25
2022-11-19T09:02:57.983Z,100429.31
2022-11-19T09:05:24.410Z,100435.31
2022-11-19T09:07:50.778Z,100431.66
2022-11-19T09:10:17.486Z,100442.09
2022-11-19T09:12:44.007Z,100451.34
2022-11-19T09:15:10.629Z,100456.84
2022-11-19T09:17:36.962Z,100446.53
2022-11-19T09:20:03.696Z,100457.09
2022-11-19T09:22:31.266Z,100464.81
2022-11-19T09:24:57.543Z,100471.53
2022-11-19T09:27:23.901Z,100470.91
2022-11-19T09:29:50.203Z,100476.91
2022-11-19T09:32:19.969Z,100475.63
2022-11-19T09:34:50.379Z,100474.63
2022-11-19T09:37:17.068Z,100476.97
2022-11-19T09:39:43.421Z,100477.28
2022-11-19T09:42:09.706Z,100483.03
2022-11-19T09:44:43.667Z,100473.81
2022-11-19T09:47:13.155Z,100483.06
2022-11-19T09:49:43.930Z,100486.91
2022-11-19T09:52:13.368Z,100465.16
2022-11-19T09:54:44.337Z,100506.28
2022-11-19T09:57:13.654Z,100504.44
2022-11-19T09:59:40.819Z,100510.94
2022-11-19T10:02:15.196Z,100502.13
2022-11-19T10:04:41.547Z,100504.63
2022-11-19T10:07:13.905Z,100461.75
2022-11-19T10:09:52.604Z,100493.88
2022-11-19T10:12:22.051Z,100507.28
2022-11-19T10:14:57.558Z,100500.97
2022-11-19T10:17:42.704Z,100504.81
2022-11-19T10:20:15.187Z,100502.69
2022-11-19T10:22:57.010Z,100509.88
2022-11-19T10:25:27.798Z,100512.88
2022-11-19T10:28:00.276Z,100513.41
2022-11-19T10:30:28.908Z,100517.91
2022-11-19T10:32:57.264Z,100518.56
2022-11-19T10:35:41.889Z,100523.28
2022-11-19T10:38:34.623Z,100518.56
2022-11-19T10:41:09.271Z,100526.63
2022-11-19T10:43:46.062Z,100528.59
2022-11-19T10:46:14.903Z,100525.06
2022-11-19T10:48:46.170Z,100523.56
2022-11-19T10:51:23.110Z,100518.91
2022-11-19T10:53:50.832Z,100524.44
2022-11-19T10:56:19.467Z,100518.94
2022-11-19T10:58:48.347Z,100519.94
2022-11-19T11:01:34.135Z,100521.97
2022-11-19T11:04:06.286Z,100507.91
2022-11-19T11:06:49.215Z,100513.97
2022-11-19T11:09:33.896Z,100515.25
2022-11-19T11:12:31.042Z,100517.22
2022-11-19T11:15:17.945Z,100519.44
2022-11-19T11:17:46.775Z,100520.06
2022-11-19T11:20:16.851Z,100518.41
2022-11-19T11:22:43.911Z,100523.47
2022-11-19T11:25:24.631Z,100518.97
2022-11-19T11:28:13.487Z,100525.56
2022-11-19T11:30:51.686Z,100522.22
2022-11-19T11:33:38.623Z,100518.84
2022-11-19T11:36:06.904Z,100528.09
2022-11-19T11:38:39.659Z,100519.00
2022-11-19T11:42:02.056Z,100509.78
2022-11-19T11:44:01.702Z,100498.28
2022-11-19T11:46:40.259Z,100501.28
2022-11-19T11:49:12.418Z,100500.41
2022-11-19T11:51:39.783Z,100509.97
2022-11-19T11:54:07.491Z,100505.38
2022-11-19T11:56:33.799Z,100512.19
2022-11-19T11:59:21.671Z,100509.66
2022-11-19T12:02:00.921Z,100501.47
2022-11-19T12:04:27.667Z,100507.91
2022-11-19T12:07:03.192Z,100501.84
2022-11-19T12:09:42.147Z,100496.97
2022-11-19T12:12:27.692Z,100497.78
2022-11-19T12:14:54.064Z,100501.13
2022-11-19T12:17:26.930Z,100503.81
2022-11-19T12:20:13.456Z,100500.59
2022-11-19T12:22:42.790Z,100507.19
2022-11-19T12:25:19.410Z,100509.66
2022-11-19T12:28:08.463Z,100509.50
2022-11-19T12:30:47.426Z,100511.41
2022-11-19T12:33:32.294Z,100510.84
2022-11-19T12:36:09.485Z,100501.50
2022-11-19T12:38:51.271Z,100505.53
2022-11-19T12:41:50.107Z,100509.72
2022-11-19T12:44:23.575Z,100514.06
2022-11-19T12:46:59.122Z,100514.94
2022-11-19T12:49:35.432Z,100519.34
2022-11-19T12:52:02.046Z,100514.75
2022-11-19T12:54:51.225Z,100518.66
2022-11-19T12:57:32.850Z,100524.00
2022-11-19T13:00:19.218Z,100526.56
2022-11-19T13:02:45.481Z,100527.72
2022-11-19T13:05:24.159Z,100522.91
2022-11-19T13:08:01.091Z,100523.22
2022-11-19T13:10:32.328Z,100517.00
2022-11-19T13:13:00.328Z,100526.09
2022-11-19T13:15:30.305Z,100524.78
2022-11-19T13:17:58.703Z,100534.19
2022-11-19T13:20:51.721Z,100521.09
2022-11-19T13:23:38.307Z,100525.13
2022-11-19T13:26:08.776Z,100518.78
2022-11-19T13:28:39.510Z,100519.78
2022-11-19T13:31:10.048Z,100528.31
2022-11-19T13:33:49.363Z,100532.72
2022-11-19T13:36:22.641Z,100530.72
2022-11-19T13:38:52.110Z,100535.94
2022-11-19T13:41:18.403Z,100538.94
2022-11-19T13:44:07.070Z,100536.03
2022-11-19T13:46:51.900Z,100530.06
2022-11-19T13:49:24.670Z,100536.25
2022-11-19T13:51:53.823Z,100538.63
2022-11-19T13:54:25.431Z,100537.13
2022-11-19T13:56:53.308Z,100539.47
2022-11-19T13:59:39.876Z,100544.47
2022-11-19T14:02:18.551Z,100543.09
2022-11-19T14:05:03.276Z,100557.06
2022-11-19T14:07:48.653Z,100548.88
2022-11-19T14:10:20.875Z,100544.53
2022-11-19T14:12:53.221Z,100541.13
2022-11-19T14:15:38.740Z,100537.06
2022-11-19T14:18:30.328Z,100539.91
2022-11-19T14:21:35.187Z,100538.38
2022-11-19T14:24:20.506Z,100540.38
2022-11-19T14:26:52.130Z,100546.44
2022-11-19T14:29:19.095Z,100544.63
2022-11-19T14:32:00.727Z,100539.34
2022-11-19T14:34:28.097Z,100540.69
2022-11-19T14:36:57.671Z,100552.47
2022-11-19T14:39:26.726Z,100552.81
2022-11-19T14:42:11.732Z,100552.09
2022-11-19T14:44:38.130Z,100549.44
2022-11-19T14:47:26.164Z,100559.69
2022-11-19T14:49:55.099Z,100556.16
2022-11-19T14:52:24.163Z,100549.28
2022-11-19T14:55:01.752Z,100552.81
2022-11-19T14:57:37.581Z,100564.91
2022-11-19T15:00:05.900Z,100558.19
2022-11-19T15:02:39.488Z,100558.13
2022-11-19T15:05:24.408Z,100556.19
2022-11-19T15:07:56.315Z,100552.81
2022-11-19T15:10:25.927Z,100556.19
2022-11-19T15:13:01.877Z,100555.75
2022-11-19T15:15:34.107Z,100562.28
2022-11-19T15:18:01.932Z,100554.94
2022-11-19T15:20:47.355Z,100556.44
2022-11-19T15:23:27.352Z,100556.47
2022-11-19T15:26:03.755Z,100564.84
2022-11-19T15:28:49.343Z,100562.81
2022-11-19T15:31:34.637Z,100566.88
2022-11-19T15:34:19.848Z,100574.38
2022-11-19T15:36:50.530Z,100567.13
2022-11-19T15:39:24.924Z,100578.88
2022-11-19T15:42:00.917Z,100577.75
2022-11-19T15:44:36.414Z,100569.97
2022-11-19T15:47:11.335Z,100572.50
2022-11-19T15:49:39.528Z,100576.91
2022-11-19T15:52:17.696Z,100577.84
2022-11-19T15:54:44.689Z,100576.41
2022-11-19T15:57:17.265Z,100580.38
2022-11-19T15:59:47.683Z,100585.91
2022-11-19T16:02:19.126Z,100576.19
2022-11-19T16:04:48.350Z,100585.75
2022-11-19T16:07:14.821Z,100583.19
2022-11-19T16:09:41.214Z,100573.81
2022-11-19T16:12:36.554Z,100575.88
2022-11-19T16:15:21.493Z,100580.50
2022-11-19T16:17:48.558Z,100582.19
2022-11-19T16:20:21.912Z,100580.50
2022-11-19T16:23:05.301Z,100574.78
2022-11-19T16:25:36.476Z,100583.34
2022-11-19T16:28:05.747Z,100577.78
2022-11-19T16:30:39.480Z,100579.47
2022-11-19T16:33:05.815Z,100578.53
2022-11-19T16:35:32.663Z,100580.34
2022-11-19T16:37:59.878Z,100586.88
2022-11-19T16:40:26.574Z,100586.06
2022-11-19T16:42:57.271Z,100586.91
2022-11-19T16:45:25.223Z,100592.97
2022-11-19T16:47:56.217Z,100588.94
2022-11-19T16:50:26.875Z,100591.81
2022-11-19T16:52:53.427Z,100593.63
2022-11-19T16:55:19.893Z,100585.75
2022-11-19T16:57:49.805Z,100591.66
2022-11-19T17:00:17.847Z,100592.16
2022-11-19T17:02:44.427Z,100591.03
2022-11-19T17:05:12.755Z,100594.03
2022-11-19T17:07:39.658Z,100594.31
2022-11-19T17:10:08.526Z,100597.16
2022-11-19T17:12:36.228Z,100594.41
2022-11-19T17:15:23.887Z,100603.28
2022-11-19T17:17:51.221Z,100596.91
2022-11-19T17:20:26.765Z,100604.81
2022-11-19T17:22:53.639Z,100603.28
2022-11-19T17:25:20.102Z,100600.38
2022-11-19T17:27:50.044Z,100608.28
2022-11-19T17:30:34.491Z,100605.72
2022-11-19T17:33:02.246Z,100612.06
2022-11-19T17:35:41.841Z,100617.34
2022-11-19T17:38:28.490Z,100623.25
2022-11-19T17:40:59.149Z,100620.72
2022-11-19T17:43:44.429Z,100622.81
2022-11-19T17:46:11.122Z,100625.00
2022-11-19T17:48:39.863Z,100623.53
2022-11-19T17:51:06.535Z,100622.84
2022-11-19T17:53:32.916Z,100626.38
2022-11-19T17:56:00.695Z,100629.22
2022-11-19T17:58:27.100Z,100629.69
2022-11-19T18:00:53.506Z,100625.84
2022-11-19T18:03:19.919Z,100625.22
2022-11-19T18:05:47.460Z,100625.56
2022-11-19T18:08:14.650Z,100624.06
2022-11-19T18:10:42.047Z,100621.06
2022-11-19T18:13:09.823Z,100621.22
2022-11-19T18:15:36.210Z,100625.53
2022-11-19T18:18:02.576Z,100625.00
2022-11-19T18:20:29.022Z,100620.78
2022-11-19T18:22:55.336Z,100619.84
2022-11-19T18:25:22.049Z,100620.78
2022-11-19T18:27:48.447Z,100612.31
2022-11-19T18:30:17.167Z,100619.44
2022-11-19T18:32:46.696Z,100621.81
2022-11-19T18:35:17.951Z,100614.91
2022-11-19T18:37:45.179Z,100615.72
2022-11-19T18:40:12.541Z,100608.00
2022-11-19T18:42:39.001Z,100615.22
2022-11-19T18:45:05.865Z,100624.47
2022-11-19T18:47:32.311Z,100622.41
2022-11-19T18:49:58.807Z,100616.03
2022-11-19T18:52:25.100Z,100620.34
2022-11-19T18:54:51.926Z,100620.34
2022-11-19T18:57:18.329Z,100625.97
2022-11-19T18:59:44.910Z,100623.59
2022-11-19T19:02:11.684Z,100625.09
2022-11-19T19:04:38.095Z,100627.63
2022-11-19T19:07:04.453Z,100626.94
2022-11-19T19:09:33.422Z,100617.06
2022-11-19T19:12:18.084Z,100622.13
2022-11-19T19:14:45.609Z,100625.22
2022-11-19T19:17:12.025Z,100623.13
2022-11-19T19:19:38.744Z,100628.50
2022-11-19T19:22:05.737Z,100619.44
2022-11-19T19:24:32.453Z,100623.00
2022-11-19T19:27:01.650Z,100623.50
2022-11-19T19:29:28.214Z,100628.88
2022-11-19T19:31:54.583Z,100621.47
2022-11-19T19:34:20.931Z,100619.09
2022-11-19T19:36:52.755Z,100621.31
2022-11-19T19:39:20.033Z,100618.13
2022-11-19T19:41:46.528Z,100624.91
2022-11-19T19:44:12.881Z,100621.47
2022-11-19T19:46:39.288Z,100615.19
2022-11-19T19:49:05.735Z,100622.38
2022-11-19T19:51:32.633Z,100616.25
2022-11-19T19:53:59.139Z,100621.16
2022-11-19T19:56:27.149Z,100623.59
2022-11-19T19:58:53.587Z,100622.44
2022-11-19T20:01:21.105Z,100626.84
2022-11-19T20:03:53.071Z,100632.34
2022-11-19T20:06:21.482Z,100631.28
2022-11-19T20:08:48.045Z,100628.66
2022-11-19T20:11:21.803Z,100623.09
2022-11-19T20:13:48.198Z,100620.31
2022-11-19T20:16:18.279Z,100628.66
2022-11-19T20:18:45.591Z,100628.16
2022-11-19T20:21:13.267Z,100623.47
2022-11-19T20:23:40.497Z,100631.66
2022-11-19T20:26:09.339Z,100631.44
2022-11-19T20:28:35.794Z,100638.63
2022-11-19T20:31:06.037Z,100633.66
2022-11-19T20:33:32.414Z,100636.72
2022-11-19T20:35:58.707Z,100637.72
2022-11-19T20:38:25.367Z,100634.03
2022-11-19T20:40:56.013Z,100636.03
2022-11-19T20:43:45.882Z,100633.09
2022-11-19T20:46:19.817Z,100642.44
2022-11-19T20:48:47.297Z,100644.56
2022-11-19T20:51:16.110Z,100648.94
2022-11-19T20:53:42.642Z,100641.84
2022-11-19T20:56:09.041Z,100638.16
2022-11-19T20:58:35.404Z,100644.69
2022-11-19T21:01:02.773Z,100654.56
2022-11-19T21:03:29.602Z,100645.25
2022-11-19T21:05:57.690Z,100641.22
2022-11-19T21:08:24.489Z,100644.69
2022-11-19T21:10:59.022Z,100636.22
2022-11-19T21:17:27.045Z,100643.06
2022-11-19T21:19:53.774Z,100632.97
2022-11-19T21:22:20.210Z,100631.28
2022-11-19T21:24:46.568Z,100635.63
2022-11-19T21:27:13.031Z,100639.31
2022-11-19T21:29:39.426Z,100642.00
2022-11-19T21:32:05.877Z,100641.56
2022-11-19T21:34:33.740Z,100634.53
2022-11-19T21:37:00.147Z,100641.84
2022-11-19T21:39:26.555Z,100644.25
2022-11-19T21:41:52.930Z,100598.03
2022-11-19T21:44:21.854Z,100637.31
2022-11-19T21:46:48.639Z,100632.28
2022-11-19T21:49:15.276Z,100629.47
2022-11-19T21:51:41.673Z,100632.66
2022-11-19T21:54:08.054Z,100632.28
2022-11-19T21:56:38.514Z,100625.34
2022-11-19T21:59:06.186Z,100630.59
2022-11-19T22:01:32.516Z,100624.13
2022-11-19T22:03:58.975Z,100621.13
2022-11-19T22:06:25.311Z,100626.81
2022-11-19T22:08:51.671Z,100618.41
2022-11-19T22:11:30.602Z,100584.72
2022-11-19T22:14:02.637Z,100624.13
2022-11-19T22:16:29.806Z,100635.16
2022-11-19T22:18:56.103Z,100630.09
2022-11-19T22:21:22.998Z,100628.13
2022-11-19T22:23:49.846Z,100630.09
2022-11-19T22:26:16.151Z,100625.78
2022-11-19T22:28:42.575Z,100630.34
2022-11-19T22:31:09.291Z,100619.06
2022-11-19T22:33:36.800Z,100619.22
2022-11-19T22:36:09.509Z,100621.84
2022-11-19T22:38:37.059Z,100616.22
2022-11-19T22:41:08.406Z,100626.75
2022-11-19T22:43:37.195Z,100620.38
2022-11-19T22:46:03.811Z,100627.56
2022-11-19T22:48:33.650Z,100620.59
2022-11-19T22:51:04.521Z,100628.47
2022-11-19T22:53:30.928Z,100618.75
2022-11-19T22:56:01.514Z,100612.81
2022-11-19T22:58:27.839Z,100614.78
2022-11-19T23:00:54.153Z,100617.09
2022-11-19T23:03:20.487Z,100615.41
2022-11-19T23:05:49.881Z,100608.03
2022-11-19T23:08:16.776Z,100612.41
2022-11-19T23:10:43.547Z,100625.34
2022-11-19T23:13:31.711Z,100633.84
2022-11-19T23:16:01.194Z,100631.59
2022-11-19T23:18:27.966Z,100629.63
2022-11-19T23:20:59.030Z,100630.28
2022-11-19T23:23:25.609Z,100638.31
2022-11-19T23:25:58.810Z,100628.59
2022-11-19T23:28:25.867Z,100631.66
2022-11-19T23:30:52.723Z,100555.09
2022-11-19T23:33:19.781Z,100623.91
2022-11-19T23:35:46.368Z,100627.19
2022-11-19T23:38:12.866Z,100620.44
2022-11-19T23:40:39.410Z,100622.44
2022-11-19T23:43:06.370Z,100619.63
2022-11-19T23:45:36.434Z,100611.44
2022-11-19T23:48:02.810Z,100617.69
2022-11-19T23:50:29.434Z,100615.03
2022-11-19T23:52:55.862Z,100605.50
2022-11-19T23:55:22.245Z,100611.09
2022-11-19T23:57:48.690Z,100614.84
